sensor_id;sensor_type;location;lat;lon;timestamp;temperature;humidity
6843;DHT22;3460;52.028;8.916;2023-07-30T00:00:43;16.40;99.90
6843;DHT22;3460;52.028;8.916;2023-07-30T00:03:09;16.60;99.90
6843;DHT22;3460;52.028;8.916;2023-07-30T00:05:36;16.70;99.90
6843;DHT22;3460;52.028;8.916;2023-07-30T00:08:03;16.80;99.90
6843;DHT22;3460;52.028;8.916;2023-07-30T00:10:31;16.80;99.90
6843;DHT22;3460;52.028;8.916;2023-07-30T00:12:58;16.90;99.90
6843;DHT22;3460;52.028;8.916;2023-07-30T00:15:25;17.00;99.90
6843;DHT22;3460;52.028;8.916;2023-07-30T00:17:52;17.00;99.90
6843;DHT22;3460;52.028;8.916;2023-07-30T00:20:18;17.00;99.90
6843;DHT22;3460;52.028;8.916;2023-07-30T00:22:45;17.10;99.90
6843;DHT22;3460;52.028;8.916;2023-07-30T00:25:12;17.10;99.90
6843;DHT22;3460;52.028;8.916;2023-07-30T00:27:40;17.20;99.90
6843;DHT22;3460;52.028;8.916;2023-07-30T00:30:08;17.20;99.90
6843;DHT22;3460;52.028;8.916;2023-07-30T00:32:34;17.20;99.90
6843;DHT22;3460;52.028;8.916;2023-07-30T00:35:01;17.30;99.90
6843;DHT22;3460;52.028;8.916;2023-07-30T00:37:29;17.30;99.90
6843;DHT22;3460;52.028;8.916;2023-07-30T00:39:56;17.30;99.90
6843;DHT22;3460;52.028;8.916;2023-07-30T00:42:23;17.30;99.90
6843;DHT22;3460;52.028;8.916;2023-07-30T00:44:51;17.30;99.90
6843;DHT22;3460;52.028;8.916;2023-07-30T00:47:17;17.30;99.90
6843;DHT22;3460;52.028;8.916;2023-07-30T00:49:44;17.30;99.90
6843;DHT22;3460;52.028;8.916;2023-07-30T00:52:11;17.20;99.90
6843;DHT22;3460;52.028;8.916;2023-07-30T00:54:39;17.30;99.90
6843;DHT22;3460;52.028;8.916;2023-07-30T00:57:06;17.20;99.90
6843;DHT22;3460;52.028;8.916;2023-07-30T00:59:33;17.30;99.90
6843;DHT22;3460;52.028;8.916;2023-07-30T01:02:02;17.20;99.90
6843;DHT22;3460;52.028;8.916;2023-07-30T01:04:30;17.20;99.90
6843;DHT22;3460;52.028;8.916;2023-07-30T01:06:57;17.20;99.90
6843;DHT22;3460;52.028;8.916;2023-07-30T01:09:24;17.20;99.90
6843;DHT22;3460;52.028;8.916;2023-07-30T01:11:52;17.20;99.90
6843;DHT22;3460;52.028;8.916;2023-07-30T01:14:20;17.10;99.90
6843;DHT22;3460;52.028;8.916;2023-07-30T01:16:48;17.10;99.90
6843;DHT22;3460;52.028;8.916;2023-07-30T01:19:16;17.10;99.90
6843;DHT22;3460;52.028;8.916;2023-07-30T01:21:44;17.20;99.90
6843;DHT22;3460;52.028;8.916;2023-07-30T01:24:11;17.10;99.90
6843;DHT22;3460;52.028;8.916;2023-07-30T01:26:42;17.00;99.90
6843;DHT22;3460;52.028;8.916;2023-07-30T01:29:14;16.90;99.90
6843;DHT22;3460;52.028;8.916;2023-07-30T01:31:43;16.80;99.90
6843;DHT22;3460;52.028;8.916;2023-07-30T01:34:15;16.70;99.90
6843;DHT22;3460;52.028;8.916;2023-07-30T01:36:44;16.70;99.90
6843;DHT22;3460;52.028;8.916;2023-07-30T01:39:11;16.60;99.90
6843;DHT22;3460;52.028;8.916;2023-07-30T01:41:38;16.50;99.90
6843;DHT22;3460;52.028;8.916;2023-07-30T01:44:05;16.50;99.90
6843;DHT22;3460;52.028;8.916;2023-07-30T01:46:32;16.50;99.90
6843;DHT22;3460;52.028;8.916;2023-07-30T01:48:59;16.40;99.90
6843;DHT22;3460;52.028;8.916;2023-07-30T01:51:26;16.40;99.90
6843;DHT22;3460;52.028;8.916;2023-07-30T01:53:54;16.40;99.90
6843;DHT22;3460;52.028;8.916;2023-07-30T01:56:21;16.30;99.90
6843;DHT22;3460;52.028;8.916;2023-07-30T01:58:47;16.30;99.90
6843;DHT22;3460;52.028;8.916;2023-07-30T02:01:15;16.20;99.90
6843;DHT22;3460;52.028;8.916;2023-07-30T02:03:42;16.20;99.90
6843;DHT22;3460;52.028;8.916;2023-07-30T02:06:09;16.10;99.90
6843;DHT22;3460;52.028;8.916;2023-07-30T02:08:36;16.10;99.90
6843;DHT22;3460;52.028;8.916;2023-07-30T02:11:05;16.10;99.90
6843;DHT22;3460;52.028;8.916;2023-07-30T02:13:31;16.10;99.90
6843;DHT22;3460;52.028;8.916;2023-07-30T02:15:58;16.10;99.90
6843;DHT22;3460;52.028;8.916;2023-07-30T02:18:25;16.00;99.90
6843;DHT22;3460;52.028;8.916;2023-07-30T02:21:06;16.00;99.90
6843;DHT22;3460;52.028;8.916;2023-07-30T02:23:32;16.00;99.90
6843;DHT22;3460;52.028;8.916;2023-07-30T02:25:59;15.90;99.90
6843;DHT22;3460;52.028;8.916;2023-07-30T02:28:27;15.90;99.90
6843;DHT22;3460;52.028;8.916;2023-07-30T02:30:54;15.90;99.90
6843;DHT22;3460;52.028;8.916;2023-07-30T02:33:21;15.80;99.90
6843;DHT22;3460;52.028;8.916;2023-07-30T02:35:48;15.80;99.90
6843;DHT22;3460;52.028;8.916;2023-07-30T02:38:14;15.70;99.90
6843;DHT22;3460;52.028;8.916;2023-07-30T02:40:41;15.70;99.90
6843;DHT22;3460;52.028;8.916;2023-07-30T02:43:08;15.60;99.90
6843;DHT22;3460;52.028;8.916;2023-07-30T02:45:37;15.60;99.90
6843;DHT22;3460;52.028;8.916;2023-07-30T02:48:04;15.50;99.90
6843;DHT22;3460;52.028;8.916;2023-07-30T02:50:31;15.60;99.90
6843;DHT22;3460;52.028;8.916;2023-07-30T02:52:57;15.50;99.90
6843;DHT22;3460;52.028;8.916;2023-07-30T02:55:24;15.50;99.90
6843;DHT22;3460;52.028;8.916;2023-07-30T02:57:51;15.50;99.90
6843;DHT22;3460;52.028;8.916;2023-07-30T03:00:18;15.40;99.90
6843;DHT22;3460;52.028;8.916;2023-07-30T03:02:46;15.30;99.90
6843;DHT22;3460;52.028;8.916;2023-07-30T03:05:13;15.30;99.90
6843;DHT22;3460;52.028;8.916;2023-07-30T03:07:40;15.30;99.90
6843;DHT22;3460;52.028;8.916;2023-07-30T03:10:07;15.20;99.90
6843;DHT22;3460;52.028;8.916;2023-07-30T03:12:34;15.30;99.90
6843;DHT22;3460;52.028;8.916;2023-07-30T03:15:00;15.20;99.90
6843;DHT22;3460;52.028;8.916;2023-07-30T03:17:27;15.20;99.90
6843;DHT22;3460;52.028;8.916;2023-07-30T03:19:55;15.30;99.90
6843;DHT22;3460;52.028;8.916;2023-07-30T03:22:22;15.30;99.90
6843;DHT22;3460;52.028;8.916;2023-07-30T03:24:49;15.30;99.90
6843;DHT22;3460;52.028;8.916;2023-07-30T03:27:16;15.20;99.90
6843;DHT22;3460;52.028;8.916;2023-07-30T03:29:43;15.30;99.90
6843;DHT22;3460;52.028;8.916;2023-07-30T03:32:09;15.30;99.90
6843;DHT22;3460;52.028;8.916;2023-07-30T03:34:36;15.30;99.90
6843;DHT22;3460;52.028;8.916;2023-07-30T03:37:04;15.30;99.90
6843;DHT22;3460;52.028;8.916;2023-07-30T03:39:31;15.30;99.90
6843;DHT22;3460;52.028;8.916;2023-07-30T03:41:58;15.20;99.90
6843;DHT22;3460;52.028;8.916;2023-07-30T03:44:25;15.30;99.90
6843;DHT22;3460;52.028;8.916;2023-07-30T03:46:51;15.30;99.90
6843;DHT22;3460;52.028;8.916;2023-07-30T03:49:18;15.20;99.90
6843;DHT22;3460;52.028;8.916;2023-07-30T03:51:45;15.20;99.90
6843;DHT22;3460;52.028;8.916;2023-07-30T03:54:13;15.20;99.90
6843;DHT22;3460;52.028;8.916;2023-07-30T03:56:40;15.20;99.90
6843;DHT22;3460;52.028;8.916;2023-07-30T03:59:07;15.20;99.90
6843;DHT22;3460;52.028;8.916;2023-07-30T04:01:34;15.20;99.90
6843;DHT22;3460;52.028;8.916;2023-07-30T04:04:00;15.20;99.90
6843;DHT22;3460;52.028;8.916;2023-07-30T04:06:27;15.20;99.90
6843;DHT22;3460;52.028;8.916;2023-07-30T04:08:54;15.20;99.90
6843;DHT22;3460;52.028;8.916;2023-07-30T04:11:22;15.20;99.90
6843;DHT22;3460;52.028;8.916;2023-07-30T04:13:49;15.20;99.90
6843;DHT22;3460;52.028;8.916;2023-07-30T04:16:16;15.20;99.90
6843;DHT22;3460;52.028;8.916;2023-07-30T04:18:43;15.20;99.90
6843;DHT22;3460;52.028;8.916;2023-07-30T04:21:09;15.20;99.90
6843;DHT22;3460;52.028;8.916;2023-07-30T04:23:36;15.20;99.90
6843;DHT22;3460;52.028;8.916;2023-07-30T04:26:03;15.20;99.90
6843;DHT22;3460;52.028;8.916;2023-07-30T04:28:31;15.30;99.90
6843;DHT22;3460;52.028;8.916;2023-07-30T04:30:58;15.30;99.90
6843;DHT22;3460;52.028;8.916;2023-07-30T04:33:25;15.40;99.90
6843;DHT22;3460;52.028;8.916;2023-07-30T04:35:52;15.40;99.90
6843;DHT22;3460;52.028;8.916;2023-07-30T04:38:19;15.30;99.90
6843;DHT22;3460;52.028;8.916;2023-07-30T04:40:46;15.40;99.90
6843;DHT22;3460;52.028;8.916;2023-07-30T04:43:13;15.40;99.90
6843;DHT22;3460;52.028;8.916;2023-07-30T04:45:42;15.50;99.90
6843;DHT22;3460;52.028;8.916;2023-07-30T04:48:11;15.50;99.90
6843;DHT22;3460;52.028;8.916;2023-07-30T04:50:38;15.50;99.90
6843;DHT22;3460;52.028;8.916;2023-07-30T04:53:07;15.50;99.90
6843;DHT22;3460;52.028;8.916;2023-07-30T04:55:34;15.50;99.90
6843;DHT22;3460;52.028;8.916;2023-07-30T04:58:01;15.50;99.90
6843;DHT22;3460;52.028;8.916;2023-07-30T05:00:29;15.60;99.90
6843;DHT22;3460;52.028;8.916;2023-07-30T05:02:57;15.60;99.90
6843;DHT22;3460;52.028;8.916;2023-07-30T05:05:23;15.70;99.90
6843;DHT22;3460;52.028;8.916;2023-07-30T05:07:50;15.90;99.90
6843;DHT22;3460;52.028;8.916;2023-07-30T05:10:17;16.20;99.90
6843;DHT22;3460;52.028;8.916;2023-07-30T05:12:44;16.60;99.90
6843;DHT22;3460;52.028;8.916;2023-07-30T05:15:11;16.90;99.90
6843;DHT22;3460;52.028;8.916;2023-07-30T05:17:37;17.20;99.90
6843;DHT22;3460;52.028;8.916;2023-07-30T05:20:07;17.40;99.90
6843;DHT22;3460;52.028;8.916;2023-07-30T05:22:34;17.40;99.90
6843;DHT22;3460;52.028;8.916;2023-07-30T05:25:01;17.40;99.90
6843;DHT22;3460;52.028;8.916;2023-07-30T05:27:28;17.40;99.90
6843;DHT22;3460;52.028;8.916;2023-07-30T05:29:57;17.40;99.90
6843;DHT22;3460;52.028;8.916;2023-07-30T05:32:24;17.40;99.90
6843;DHT22;3460;52.028;8.916;2023-07-30T05:34:50;17.40;99.90
6843;DHT22;3460;52.028;8.916;2023-07-30T05:37:19;17.40;99.90
6843;DHT22;3460;52.028;8.916;2023-07-30T05:39:45;17.40;99.90
6843;DHT22;3460;52.028;8.916;2023-07-30T05:42:12;17.30;99.90
6843;DHT22;3460;52.028;8.916;2023-07-30T05:44:39;17.30;99.90
6843;DHT22;3460;52.028;8.916;2023-07-30T05:47:06;17.20;99.90
6843;DHT22;3460;52.028;8.916;2023-07-30T05:49:32;17.10;99.90
6843;DHT22;3460;52.028;8.916;2023-07-30T05:51:59;17.10;99.90
6843;DHT22;3460;52.028;8.916;2023-07-30T05:54:27;17.10;99.90
6843;DHT22;3460;52.028;8.916;2023-07-30T05:56:54;17.20;99.90
6843;DHT22;3460;52.028;8.916;2023-07-30T05:59:21;17.30;99.90
6843;DHT22;3460;52.028;8.916;2023-07-30T06:01:48;17.30;99.90
6843;DHT22;3460;52.028;8.916;2023-07-30T06:04:14;17.20;99.90
6843;DHT22;3460;52.028;8.916;2023-07-30T06:06:41;17.10;99.90
6843;DHT22;3460;52.028;8.916;2023-07-30T06:09:08;17.00;99.90
6843;DHT22;3460;52.028;8.916;2023-07-30T06:11:38;17.10;99.90
6843;DHT22;3460;52.028;8.916;2023-07-30T06:14:05;17.10;99.90
6843;DHT22;3460;52.028;8.916;2023-07-30T06:16:31;17.10;99.90
6843;DHT22;3460;52.028;8.916;2023-07-30T06:18:58;17.10;99.90
6843;DHT22;3460;52.028;8.916;2023-07-30T06:21:25;17.20;99.90
6843;DHT22;3460;52.028;8.916;2023-07-30T06:23:52;17.10;99.90
6843;DHT22;3460;52.028;8.916;2023-07-30T06:26:19;17.20;99.90
6843;DHT22;3460;52.028;8.916;2023-07-30T06:28:47;17.30;99.90
6843;DHT22;3460;52.028;8.916;2023-07-30T06:31:14;17.30;99.90
6843;DHT22;3460;52.028;8.916;2023-07-30T06:33:40;17.30;99.90
6843;DHT22;3460;52.028;8.916;2023-07-30T06:36:07;17.20;99.90
6843;DHT22;3460;52.028;8.916;2023-07-30T06:38:34;17.20;99.90
6843;DHT22;3460;52.028;8.916;2023-07-30T06:41:01;17.20;99.90
6843;DHT22;3460;52.028;8.916;2023-07-30T06:43:27;17.30;99.90
6843;DHT22;3460;52.028;8.916;2023-07-30T06:45:56;17.40;99.90
6843;DHT22;3460;52.028;8.916;2023-07-30T06:48:22;17.40;99.90
6843;DHT22;3460;52.028;8.916;2023-07-30T06:50:49;17.40;99.90
6843;DHT22;3460;52.028;8.916;2023-07-30T06:53:16;17.40;99.90
6843;DHT22;3460;52.028;8.916;2023-07-30T06:55:43;17.40;99.90
6843;DHT22;3460;52.028;8.916;2023-07-30T06:58:10;17.40;99.90
6843;DHT22;3460;52.028;8.916;2023-07-30T07:00:37;17.30;99.90
6843;DHT22;3460;52.028;8.916;2023-07-30T07:03:05;17.10;99.90
6843;DHT22;3460;52.028;8.916;2023-07-30T07:05:32;17.10;99.90
6843;DHT22;3460;52.028;8.916;2023-07-30T07:07:59;17.10;99.90
6843;DHT22;3460;52.028;8.916;2023-07-30T07:10:25;17.00;99.90
6843;DHT22;3460;52.028;8.916;2023-07-30T07:12:52;17.00;99.90
6843;DHT22;3460;52.028;8.916;2023-07-30T07:15:19;16.90;99.90
6843;DHT22;3460;52.028;8.916;2023-07-30T07:17:46;16.90;99.90
6843;DHT22;3460;52.028;8.916;2023-07-30T07:20:14;17.00;99.90
6843;DHT22;3460;52.028;8.916;2023-07-30T07:22:41;16.90;99.90
6843;DHT22;3460;52.028;8.916;2023-07-30T07:25:08;16.90;99.90
6843;DHT22;3460;52.028;8.916;2023-07-30T07:27:35;16.90;99.90
6843;DHT22;3460;52.028;8.916;2023-07-30T07:30:02;16.90;99.90
6843;DHT22;3460;52.028;8.916;2023-07-30T07:32:29;17.00;99.90
6843;DHT22;3460;52.028;8.916;2023-07-30T07:34:56;17.00;99.90
6843;DHT22;3460;52.028;8.916;2023-07-30T07:37:24;17.20;99.90
6843;DHT22;3460;52.028;8.916;2023-07-30T07:39:51;17.30;99.90
6843;DHT22;3460;52.028;8.916;2023-07-30T07:42:18;17.40;99.90
6843;DHT22;3460;52.028;8.916;2023-07-30T07:44:44;17.40;99.90
6843;DHT22;3460;52.028;8.916;2023-07-30T07:47:11;17.60;99.90
6843;DHT22;3460;52.028;8.916;2023-07-30T07:49:38;17.60;99.90
6843;DHT22;3460;52.028;8.916;2023-07-30T07:52:05;17.70;99.90
6843;DHT22;3460;52.028;8.916;2023-07-30T07:54:34;17.70;99.90
6843;DHT22;3460;52.028;8.916;2023-07-30T07:57:01;17.70;99.90
6843;DHT22;3460;52.028;8.916;2023-07-30T07:59:27;17.70;99.90
6843;DHT22;3460;52.028;8.916;2023-07-30T08:01:54;17.70;99.90
6843;DHT22;3460;52.028;8.916;2023-07-30T08:04:21;17.70;99.90
6843;DHT22;3460;52.028;8.916;2023-07-30T08:06:48;17.60;99.90
6843;DHT22;3460;52.028;8.916;2023-07-30T08:09:15;17.60;99.90
6843;DHT22;3460;52.028;8.916;2023-07-30T08:11:43;17.60;99.90
6843;DHT22;3460;52.028;8.916;2023-07-30T08:14:10;17.50;99.90
6843;DHT22;3460;52.028;8.916;2023-07-30T08:16:36;17.60;99.90
6843;DHT22;3460;52.028;8.916;2023-07-30T08:19:03;17.60;99.90
6843;DHT22;3460;52.028;8.916;2023-07-30T08:21:30;17.50;99.90
6843;DHT22;3460;52.028;8.916;2023-07-30T08:23:57;17.50;99.90
6843;DHT22;3460;52.028;8.916;2023-07-30T08:26:24;17.50;99.90
6843;DHT22;3460;52.028;8.916;2023-07-30T08:28:52;17.50;99.90
6843;DHT22;3460;52.028;8.916;2023-07-30T08:31:18;17.40;99.90
6843;DHT22;3460;52.028;8.916;2023-07-30T08:33:45;17.40;99.90
6843;DHT22;3460;52.028;8.916;2023-07-30T08:36:12;17.30;99.90
6843;DHT22;3460;52.028;8.916;2023-07-30T08:38:39;17.30;99.90
6843;DHT22;3460;52.028;8.916;2023-07-30T08:41:06;17.30;99.90
6843;DHT22;3460;52.028;8.916;2023-07-30T08:43:34;17.40;99.90
6843;DHT22;3460;52.028;8.916;2023-07-30T08:46:03;17.40;99.90
6843;DHT22;3460;52.028;8.916;2023-07-30T08:48:30;17.40;99.90
6843;DHT22;3460;52.028;8.916;2023-07-30T08:50:57;17.40;99.90
6843;DHT22;3460;52.028;8.916;2023-07-30T08:53:25;17.30;99.90
6843;DHT22;3460;52.028;8.916;2023-07-30T08:55:53;17.30;99.90
6843;DHT22;3460;52.028;8.916;2023-07-30T08:58:21;17.30;99.90
6843;DHT22;3460;52.028;8.916;2023-07-30T09:00:49;17.20;99.90
6843;DHT22;3460;52.028;8.916;2023-07-30T09:03:18;17.20;99.90
6843;DHT22;3460;52.028;8.916;2023-07-30T09:05:46;17.20;99.90
6843;DHT22;3460;52.028;8.916;2023-07-30T09:08:14;17.10;99.90
6843;DHT22;3460;52.028;8.916;2023-07-30T09:10:41;17.10;99.90
6843;DHT22;3460;52.028;8.916;2023-07-30T09:13:08;17.10;99.90
6843;DHT22;3460;52.028;8.916;2023-07-30T09:15:36;17.10;99.90
6843;DHT22;3460;52.028;8.916;2023-07-30T09:18:04;17.20;99.90
6843;DHT22;3460;52.028;8.916;2023-07-30T09:20:38;17.10;99.90
6843;DHT22;3460;52.028;8.916;2023-07-30T09:23:05;17.10;99.90
6843;DHT22;3460;52.028;8.916;2023-07-30T09:25:32;17.00;99.90
6843;DHT22;3460;52.028;8.916;2023-07-30T09:27:58;17.00;99.90
6843;DHT22;3460;52.028;8.916;2023-07-30T09:30:27;17.00;99.90
6843;DHT22;3460;52.028;8.916;2023-07-30T09:32:55;17.00;99.90
6843;DHT22;3460;52.028;8.916;2023-07-30T09:35:23;17.00;99.90
6843;DHT22;3460;52.028;8.916;2023-07-30T09:37:58;17.00;99.90
6843;DHT22;3460;52.028;8.916;2023-07-30T09:40:31;17.00;99.90
6843;DHT22;3460;52.028;8.916;2023-07-30T09:42:58;17.00;99.90
6843;DHT22;3460;52.028;8.916;2023-07-30T09:45:26;17.10;99.90
6843;DHT22;3460;52.028;8.916;2023-07-30T09:47:54;17.00;99.90
6843;DHT22;3460;52.028;8.916;2023-07-30T09:50:21;17.10;99.90
6843;DHT22;3460;52.028;8.916;2023-07-30T09:52:49;17.20;99.90
6843;DHT22;3460;52.028;8.916;2023-07-30T09:55:17;17.20;99.90
6843;DHT22;3460;52.028;8.916;2023-07-30T09:57:45;17.20;99.90
6843;DHT22;3460;52.028;8.916;2023-07-30T10:00:12;17.20;99.90
6843;DHT22;3460;52.028;8.916;2023-07-30T10:02:41;17.20;99.90
6843;DHT22;3460;52.028;8.916;2023-07-30T10:05:12;17.20;99.90
6843;DHT22;3460;52.028;8.916;2023-07-30T10:07:44;17.20;99.90
6843;DHT22;3460;52.028;8.916;2023-07-30T10:10:13;17.10;99.90
6843;DHT22;3460;52.028;8.916;2023-07-30T10:12:42;17.10;99.90
6843;DHT22;3460;52.028;8.916;2023-07-30T10:15:10;17.10;99.90
6843;DHT22;3460;52.028;8.916;2023-07-30T10:17:37;17.20;99.90
6843;DHT22;3460;52.028;8.916;2023-07-30T10:20:24;17.20;99.90
6843;DHT22;3460;52.028;8.916;2023-07-30T10:22:52;17.20;99.90
6843;DHT22;3460;52.028;8.916;2023-07-30T10:25:21;17.20;99.90
6843;DHT22;3460;52.028;8.916;2023-07-30T10:27:51;17.30;99.90
6843;DHT22;3460;52.028;8.916;2023-07-30T10:30:19;17.30;99.90
6843;DHT22;3460;52.028;8.916;2023-07-30T10:33:01;17.30;99.90
6843;DHT22;3460;52.028;8.916;2023-07-30T10:35:41;17.30;99.90
6843;DHT22;3460;52.028;8.916;2023-07-30T10:38:16;17.40;99.90
6843;DHT22;3460;52.028;8.916;2023-07-30T10:41:01;17.40;99.90
6843;DHT22;3460;52.028;8.916;2023-07-30T10:43:30;17.40;99.90
6843;DHT22;3460;52.028;8.916;2023-07-30T10:45:57;17.50;99.90
6843;DHT22;3460;52.028;8.916;2023-07-30T10:48:32;17.60;99.90
6843;DHT22;3460;52.028;8.916;2023-07-30T10:51:00;17.80;99.90
6843;DHT22;3460;52.028;8.916;2023-07-30T10:53:27;18.00;99.90
6843;DHT22;3460;52.028;8.916;2023-07-30T10:55:54;18.40;99.90
6843;DHT22;3460;52.028;8.916;2023-07-30T10:58:24;18.60;99.90
6843;DHT22;3460;52.028;8.916;2023-07-30T11:00:52;18.70;99.90
6843;DHT22;3460;52.028;8.916;2023-07-30T11:03:19;18.70;99.90
6843;DHT22;3460;52.028;8.916;2023-07-30T11:05:47;18.60;99.90
6843;DHT22;3460;52.028;8.916;2023-07-30T11:08:14;18.50;99.90
6843;DHT22;3460;52.028;8.916;2023-07-30T11:10:42;18.50;99.90
6843;DHT22;3460;52.028;8.916;2023-07-30T11:13:09;18.50;99.90
6843;DHT22;3460;52.028;8.916;2023-07-30T11:15:41;18.40;99.90
6843;DHT22;3460;52.028;8.916;2023-07-30T11:18:10;18.50;99.90
6843;DHT22;3460;52.028;8.916;2023-07-30T11:20:37;18.70;99.90
6843;DHT22;3460;52.028;8.916;2023-07-30T11:23:17;18.80;99.90
6843;DHT22;3460;52.028;8.916;2023-07-30T11:25:46;19.00;99.90
6843;DHT22;3460;52.028;8.916;2023-07-30T11:28:14;19.20;99.90
6843;DHT22;3460;52.028;8.916;2023-07-30T11:30:41;19.30;99.90
6843;DHT22;3460;52.028;8.916;2023-07-30T11:33:15;19.60;99.90
6843;DHT22;3460;52.028;8.916;2023-07-30T11:35:42;19.70;99.90
6843;DHT22;3460;52.028;8.916;2023-07-30T11:38:09;19.90;99.90
6843;DHT22;3460;52.028;8.916;2023-07-30T11:40:36;20.00;99.90
6843;DHT22;3460;52.028;8.916;2023-07-30T11:43:04;20.00;99.90
6843;DHT22;3460;52.028;8.916;2023-07-30T11:45:31;19.90;99.90
6843;DHT22;3460;52.028;8.916;2023-07-30T11:48:06;19.90;99.90
6843;DHT22;3460;52.028;8.916;2023-07-30T11:50:46;20.00;99.90
6843;DHT22;3460;52.028;8.916;2023-07-30T11:53:14;20.30;99.90
6843;DHT22;3460;52.028;8.916;2023-07-30T11:55:42;20.40;99.90
6843;DHT22;3460;52.028;8.916;2023-07-30T11:58:10;20.50;99.90
6843;DHT22;3460;52.028;8.916;2023-07-30T12:00:37;20.50;99.90
6843;DHT22;3460;52.028;8.916;2023-07-30T12:03:09;20.60;99.90
6843;DHT22;3460;52.028;8.916;2023-07-30T12:05:37;20.70;99.90
6843;DHT22;3460;52.028;8.916;2023-07-30T12:08:12;20.80;99.90
6843;DHT22;3460;52.028;8.916;2023-07-30T12:10:42;20.80;99.90
6843;DHT22;3460;52.028;8.916;2023-07-30T12:13:15;20.90;99.90
6843;DHT22;3460;52.028;8.916;2023-07-30T12:15:44;21.10;99.90
6843;DHT22;3460;52.028;8.916;2023-07-30T12:18:11;21.20;99.90
6843;DHT22;3460;52.028;8.916;2023-07-30T12:20:37;21.30;99.90
6843;DHT22;3460;52.028;8.916;2023-07-30T12:23:06;21.40;99.90
6843;DHT22;3460;52.028;8.916;2023-07-30T12:25:32;21.30;99.90
6843;DHT22;3460;52.028;8.916;2023-07-30T12:28:00;21.40;99.90
6843;DHT22;3460;52.028;8.916;2023-07-30T12:30:26;21.40;99.90
6843;DHT22;3460;52.028;8.916;2023-07-30T12:32:53;21.30;99.90
6843;DHT22;3460;52.028;8.916;2023-07-30T12:35:20;21.20;99.90
6843;DHT22;3460;52.028;8.916;2023-07-30T12:37:47;21.10;99.90
6843;DHT22;3460;52.028;8.916;2023-07-30T12:40:16;21.00;99.90
6843;DHT22;3460;52.028;8.916;2023-07-30T12:42:42;20.90;99.90
6843;DHT22;3460;52.028;8.916;2023-07-30T12:45:10;20.70;99.90
6843;DHT22;3460;52.028;8.916;2023-07-30T12:47:36;20.50;99.90
6843;DHT22;3460;52.028;8.916;2023-07-30T12:50:04;20.40;99.90
6843;DHT22;3460;52.028;8.916;2023-07-30T12:52:32;20.40;99.90
6843;DHT22;3460;52.028;8.916;2023-07-30T12:54:59;20.20;99.90
6843;DHT22;3460;52.028;8.916;2023-07-30T12:57:28;20.20;99.90
6843;DHT22;3460;52.028;8.916;2023-07-30T12:59:55;20.30;99.90
6843;DHT22;3460;52.028;8.916;2023-07-30T13:02:22;20.30;99.90
6843;DHT22;3460;52.028;8.916;2023-07-30T13:04:48;20.20;99.90
6843;DHT22;3460;52.028;8.916;2023-07-30T13:07:15;20.10;99.90
6843;DHT22;3460;52.028;8.916;2023-07-30T13:09:42;20.10;99.90
6843;DHT22;3460;52.028;8.916;2023-07-30T13:12:09;20.10;99.90
6843;DHT22;3460;52.028;8.916;2023-07-30T13:14:37;20.20;99.90
6843;DHT22;3460;52.028;8.916;2023-07-30T13:17:04;20.30;99.90
6843;DHT22;3460;52.028;8.916;2023-07-30T13:19:30;20.40;99.90
6843;DHT22;3460;52.028;8.916;2023-07-30T13:21:58;20.60;99.90
6843;DHT22;3460;52.028;8.916;2023-07-30T13:24:25;20.60;99.90
6843;DHT22;3460;52.028;8.916;2023-07-30T13:26:55;20.60;99.90
6843;DHT22;3460;52.028;8.916;2023-07-30T13:29:21;20.60;99.90
6843;DHT22;3460;52.028;8.916;2023-07-30T13:31:50;20.60;99.90
6843;DHT22;3460;52.028;8.916;2023-07-30T13:34:16;20.70;99.90
6843;DHT22;3460;52.028;8.916;2023-07-30T13:36:43;20.60;99.90
6843;DHT22;3460;52.028;8.916;2023-07-30T13:39:10;20.60;99.90
6843;DHT22;3460;52.028;8.916;2023-07-30T13:41:37;20.50;99.90
6843;DHT22;3460;52.028;8.916;2023-07-30T13:44:03;20.50;99.90
6843;DHT22;3460;52.028;8.916;2023-07-30T13:46:31;20.50;99.90
6843;DHT22;3460;52.028;8.916;2023-07-30T13:48:59;20.40;99.90
6843;DHT22;3460;52.028;8.916;2023-07-30T13:51:26;20.50;99.90
6843;DHT22;3460;52.028;8.916;2023-07-30T13:53:57;20.40;99.90
6843;DHT22;3460;52.028;8.916;2023-07-30T13:56:24;20.20;99.90
6843;DHT22;3460;52.028;8.916;2023-07-30T13:58:51;20.10;99.90
6843;DHT22;3460;52.028;8.916;2023-07-30T14:01:18;20.00;99.90
6843;DHT22;3460;52.028;8.916;2023-07-30T14:03:45;19.80;99.90
6843;DHT22;3460;52.028;8.916;2023-07-30T14:06:13;19.70;99.90
6843;DHT22;3460;52.028;8.916;2023-07-30T14:08:40;19.50;99.90
6843;DHT22;3460;52.028;8.916;2023-07-30T14:11:07;19.30;99.90
6843;DHT22;3460;52.028;8.916;2023-07-30T14:13:33;18.90;99.90
6843;DHT22;3460;52.028;8.916;2023-07-30T14:16:00;18.70;99.90
6843;DHT22;3460;52.028;8.916;2023-07-30T14:18:27;18.50;99.90
6843;DHT22;3460;52.028;8.916;2023-07-30T14:20:54;18.30;99.90
6843;DHT22;3460;52.028;8.916;2023-07-30T14:23:22;18.20;99.90
6843;DHT22;3460;52.028;8.916;2023-07-30T14:25:49;18.10;99.90
6843;DHT22;3460;52.028;8.916;2023-07-30T14:28:16;18.00;99.90
6843;DHT22;3460;52.028;8.916;2023-07-30T14:30:43;17.90;99.90
6843;DHT22;3460;52.028;8.916;2023-07-30T14:33:10;17.80;99.90
6843;DHT22;3460;52.028;8.916;2023-07-30T14:35:37;17.80;99.90
6843;DHT22;3460;52.028;8.916;2023-07-30T14:38:04;17.70;99.90
6843;DHT22;3460;52.028;8.916;2023-07-30T14:40:33;17.70;99.90
6843;DHT22;3460;52.028;8.916;2023-07-30T14:42:59;17.70;99.90
6843;DHT22;3460;52.028;8.916;2023-07-30T14:45:26;17.70;99.90
6843;DHT22;3460;52.028;8.916;2023-07-30T14:47:53;17.70;99.90
6843;DHT22;3460;52.028;8.916;2023-07-30T14:50:20;17.90;99.90
6843;DHT22;3460;52.028;8.916;2023-07-30T14:52:47;18.10;99.90
6843;DHT22;3460;52.028;8.916;2023-07-30T14:55:13;18.20;99.90
6843;DHT22;3460;52.028;8.916;2023-07-30T14:57:42;18.50;99.90
6843;DHT22;3460;52.028;8.916;2023-07-30T15:00:10;18.80;99.90
6843;DHT22;3460;52.028;8.916;2023-07-30T15:02:39;19.10;99.90
6843;DHT22;3460;52.028;8.916;2023-07-30T15:05:06;19.30;99.90
6843;DHT22;3460;52.028;8.916;2023-07-30T15:07:34;19.50;99.90
6843;DHT22;3460;52.028;8.916;2023-07-30T15:10:00;19.60;99.90
6843;DHT22;3460;52.028;8.916;2023-07-30T15:12:28;19.70;99.90
6843;DHT22;3460;52.028;8.916;2023-07-30T15:14:56;19.90;99.90
6843;DHT22;3460;52.028;8.916;2023-07-30T15:17:23;20.00;99.90
6843;DHT22;3460;52.028;8.916;2023-07-30T15:19:49;20.10;99.90
6843;DHT22;3460;52.028;8.916;2023-07-30T15:22:18;20.20;99.90
6843;DHT22;3460;52.028;8.916;2023-07-30T15:24:44;20.30;99.90
6843;DHT22;3460;52.028;8.916;2023-07-30T15:27:11;20.40;99.90
6843;DHT22;3460;52.028;8.916;2023-07-30T15:29:38;20.50;99.90
6843;DHT22;3460;52.028;8.916;2023-07-30T15:32:06;20.40;99.90
6843;DHT22;3460;52.028;8.916;2023-07-30T15:34:33;20.50;99.90
6843;DHT22;3460;52.028;8.916;2023-07-30T15:37:00;20.50;99.90
6843;DHT22;3460;52.028;8.916;2023-07-30T15:39:27;20.40;99.90
6843;DHT22;3460;52.028;8.916;2023-07-30T15:41:54;20.50;99.90
6843;DHT22;3460;52.028;8.916;2023-07-30T15:44:21;20.60;99.90
6843;DHT22;3460;52.028;8.916;2023-07-30T15:46:48;20.70;99.90
6843;DHT22;3460;52.028;8.916;2023-07-30T15:49:16;20.70;99.90
6843;DHT22;3460;52.028;8.916;2023-07-30T15:51:43;20.90;99.90
6843;DHT22;3460;52.028;8.916;2023-07-30T15:54:10;20.90;99.90
6843;DHT22;3460;52.028;8.916;2023-07-30T15:56:36;20.90;99.90
6843;DHT22;3460;52.028;8.916;2023-07-30T15:59:04;20.90;99.90
6843;DHT22;3460;52.028;8.916;2023-07-30T16:01:31;20.80;99.90
6843;DHT22;3460;52.028;8.916;2023-07-30T16:03:58;20.80;99.90